createdAt,value
2022-11-29T00:01:36.683Z,-4.57
2022-11-29T00:04:05.042Z,-5.37
2022-11-29T00:06:34.352Z,-4.79
2022-11-29T00:09:11.882Z,-4.85
2022-11-29T00:12:00.228Z,-4.85
2022-11-29T00:14:28.295Z,-6.19
2022-11-29T00:17:02.767Z,-4.90
2022-11-29T00:19:35.290Z,-4.93
2022-11-29T00:22:02.774Z,-4.82
2022-11-29T00:24:32.645Z,-4.81
2022-11-29T00:27:00.733Z,-4.85
2022-11-29T00:29:29.571Z,-4.89
2022-11-29T00:31:57.180Z,-4.88
2022-11-29T00:34:24.419Z,-6.34
2022-11-29T00:36:51.964Z,-4.95
2022-11-29T00:39:20.080Z,-4.99
2022-11-29T00:41:47.363Z,-5.01
2022-11-29T00:44:19.887Z,-5.00
2022-11-29T00:46:48.779Z,-5.08
2022-11-29T00:49:16.953Z,-5.92
2022-11-29T00:51:44.464Z,-5.04
2022-11-29T00:54:11.771Z,-5.24
2022-11-29T00:56:39.800Z,-5.02
2022-11-29T00:59:07.196Z,-5.00
2022-11-29T01:01:34.638Z,-4.98
2022-11-29T01:04:03.259Z,-5.03
2022-11-29T01:06:30.937Z,-5.07
2022-11-29T01:08:58.461Z,-5.04
2022-11-29T01:11:27.923Z,-5.01
2022-11-29T01:14:00.437Z,-5.47
2022-11-29T01:16:30.650Z,-5.04
2022-11-29T01:18:58.337Z,-4.97
2022-11-29T01:21:25.819Z,-5.00
2022-11-29T01:23:54.987Z,-5.72
2022-11-29T01:26:26.440Z,-4.91
2022-11-29T01:28:56.149Z,-5.76
2022-11-29T01:31:27.615Z,-5.01
2022-11-29T01:34:00.561Z,-6.13
2022-11-29T01:36:28.648Z,-5.06
2022-11-29T01:38:56.514Z,-5.12
2022-11-29T01:41:25.926Z,-5.09
2022-11-29T01:44:01.686Z,-5.16
2022-11-29T01:46:35.000Z,-5.10
2022-11-29T01:49:11.053Z,-5.15
2022-11-29T01:51:42.391Z,-5.78
2022-11-29T01:54:11.390Z,-6.25
2022-11-29T01:56:39.340Z,-5.20
2022-11-29T01:59:11.498Z,-5.21
2022-11-29T02:01:39.619Z,-5.10
2022-11-29T02:04:07.834Z,-5.10
2022-11-29T02:06:37.229Z,-5.17
2022-11-29T02:09:05.793Z,-5.16
2022-11-29T02:12:01.265Z,-5.22
2022-11-29T02:15:02.430Z,-5.29
2022-11-29T02:17:53.147Z,-5.30
2022-11-29T02:20:32.438Z,-5.34
2022-11-29T02:23:21.509Z,-5.40
2022-11-29T02:26:18.263Z,-5.42
2022-11-29T02:28:58.338Z,-5.45
2022-11-29T02:31:44.778Z,-5.45
2022-11-29T02:34:27.754Z,-5.47
2022-11-29T02:37:21.120Z,-5.44
2022-11-29T02:40:25.807Z,-5.38
2022-11-29T02:43:11.264Z,-5.38
2022-11-29T02:45:51.660Z,-5.35
2022-11-29T02:48:55.940Z,-5.30
2022-11-29T02:51:36.697Z,-5.37
2022-11-29T02:54:14.517Z,-5.37
2022-11-29T02:56:57.095Z,-5.44
2022-11-29T02:59:48.091Z,-5.54
2022-11-29T03:02:36.798Z,-5.59
2022-11-29T03:05:07.061Z,-5.54
2022-11-29T03:07:49.439Z,-5.53
2022-11-29T03:10:44.111Z,-5.70
2022-11-29T03:13:34.104Z,-5.67
2022-11-29T03:16:38.408Z,-5.67
2022-11-29T03:19:47.767Z,-5.68
2022-11-29T03:22:44.419Z,-5.66
2022-11-29T03:25:29.189Z,-5.59
2022-11-29T03:28:06.643Z,-5.59
2022-11-29T03:30:40.128Z,-5.56
2022-11-29T03:33:16.656Z,-5.61
2022-11-29T03:35:56.314Z,-5.60
2022-11-29T03:38:35.448Z,-5.71
2022-11-29T03:41:18.803Z,-5.81
2022-11-29T03:44:08.539Z,-6.31
2022-11-29T03:46:53.173Z,-5.71
2022-11-29T03:49:33.536Z,-5.96
2022-11-29T03:52:24.240Z,-5.74
2022-11-29T03:55:00.884Z,-5.65
2022-11-29T03:57:40.582Z,-6.15
2022-11-29T04:00:10.991Z,-5.70
2022-11-29T04:03:04.261Z,-5.68
2022-11-29T04:05:43.811Z,-5.74
2022-11-29T04:08:11.211Z,-5.80
2022-11-29T04:10:56.978Z,-5.88
2022-11-29T04:13:56.885Z,-6.01
2022-11-29T04:16:50.877Z,-6.04
2022-11-29T04:19:43.220Z,-6.02
2022-11-29T04:22:39.885Z,-6.05
2022-11-29T04:25:25.524Z,-6.03
2022-11-29T04:28:20.772Z,-6.09
2022-11-29T04:31:26.832Z,-6.20
2022-11-29T04:33:57.285Z,-6.06
2022-11-29T04:36:51.786Z,-6.08
2022-11-29T04:39:43.826Z,-6.12
2022-11-29T04:42:48.180Z,-6.14
2022-11-29T04:45:47.138Z,-6.14
2022-11-29T04:48:40.039Z,-6.16
2022-11-29T04:51:33.946Z,-6.17
2022-11-29T04:54:30.867Z,-6.18
2022-11-29T04:57:20.964Z,-6.16
2022-11-29T04:59:57.529Z,-7.35
2022-11-29T05:02:36.924Z,-6.28
2022-11-29T05:05:04.620Z,-6.28
2022-11-29T05:07:50.639Z,-6.18
2022-11-29T05:10:37.052Z,-6.14
2022-11-29T05:13:16.425Z,-6.14
2022-11-29T05:16:01.581Z,-7.21
2022-11-29T05:18:50.012Z,-6.06
2022-11-29T05:21:40.542Z,-5.95
2022-11-29T05:24:38.724Z,-5.98
2022-11-29T05:27:44.228Z,-6.08
2022-11-29T05:30:14.671Z,-6.13
2022-11-29T05:32:51.279Z,-6.42
2022-11-29T05:35:28.064Z,-6.13
2022-11-29T05:38:02.900Z,-7.25
2022-11-29T05:40:57.993Z,-6.07
2022-11-29T05:43:44.547Z,-6.03
2022-11-29T05:46:31.180Z,-6.00
2022-11-29T05:49:10.601Z,-5.85
2022-11-29T05:52:14.243Z,-6.40
2022-11-29T05:55:04.620Z,-5.77
2022-11-29T05:57:56.040Z,-6.56
2022-11-29T06:00:24.968Z,-6.02
2022-11-29T06:03:09.770Z,-6.12
2022-11-29T06:05:49.856Z,-6.12
2022-11-29T06:08:34.575Z,-6.08
2022-11-29T06:11:07.149Z,-6.01
2022-11-29T06:13:43.091Z,-5.88
2022-11-29T06:16:29.154Z,-5.91
2022-11-29T06:19:08.633Z,-5.93
2022-11-29T06:21:49.099Z,-6.07
2022-11-29T06:24:36.144Z,-6.12
2022-11-29T06:27:15.239Z,-6.25
2022-11-29T06:30:18.459Z,-6.17
2022-11-29T06:32:57.807Z,-6.13
2022-11-29T06:35:47.235Z,-6.31
2022-11-29T06:38:29.977Z,-6.34
2022-11-29T06:41:02.222Z,-6.40
2022-11-29T06:43:31.120Z,-6.41
2022-11-29T06:46:20.885Z,-6.49
2022-11-29T06:49:02.285Z,-6.52
2022-11-29T06:51:49.917Z,-6.58
2022-11-29T06:54:33.231Z,-6.61
2022-11-29T06:57:19.154Z,-6.53
2022-11-29T07:00:05.025Z,-6.57
2022-11-29T07:02:35.448Z,-6.54
2022-11-29T07:05:26.098Z,-6.57
2022-11-29T07:07:57.261Z,-6.58
2022-11-29T07:10:25.642Z,-6.54
2022-11-29T07:12:53.818Z,-7.96
2022-11-29T07:15:23.111Z,-6.48
2022-11-29T07:17:59.686Z,-6.51
2022-11-29T07:20:59.918Z,-6.65
2022-11-29T07:23:34.470Z,-6.53
2022-11-29T07:26:26.380Z,-6.53
2022-11-29T07:29:32.718Z,-7.33
2022-11-29T07:32:05.901Z,-6.61
2022-11-29T07:35:04.714Z,-6.44
2022-11-29T07:37:46.895Z,-6.46
2022-11-29T07:40:27.045Z,-6.46
2022-11-29T07:43:22.255Z,-6.44
2022-11-29T07:45:50.187Z,-6.42
2022-11-29T07:48:18.486Z,-6.40
2022-11-29T07:50:46.307Z,-6.88
2022-11-29T07:53:17.889Z,-6.00
2022-11-29T07:55:46.210Z,-5.96
2022-11-29T07:58:15.909Z,-5.99
2022-11-29T08:00:44.857Z,-6.08
2022-11-29T08:03:12.749Z,-6.05
2022-11-29T08:05:40.865Z,-6.09
2022-11-29T08:08:08.659Z,-6.32
2022-11-29T08:10:36.290Z,-6.23
2022-11-29T08:13:03.920Z,-6.25
2022-11-29T08:15:32.048Z,-6.56
2022-11-29T08:17:59.385Z,-6.06
2022-11-29T08:20:26.592Z,-5.92
2022-11-29T08:22:56.207Z,-5.89
2022-11-29T08:25:24.846Z,-5.83
2022-11-29T08:27:52.584Z,-5.89
2022-11-29T08:30:22.729Z,-5.93
2022-11-29T08:32:51.919Z,-5.84
2022-11-29T08:35:21.110Z,-5.79
2022-11-29T08:37:48.843Z,-6.02
2022-11-29T08:40:16.663Z,-6.17
2022-11-29T08:42:44.321Z,-5.91
2022-11-29T08:45:12.505Z,-5.81
2022-11-29T08:47:42.382Z,-5.83
2022-11-29T08:50:15.981Z,-6.03
2022-11-29T08:53:07.222Z,-6.03
2022-11-29T08:55:39.760Z,-6.43
2022-11-29T08:58:12.949Z,-5.88
2022-11-29T09:00:42.772Z,-5.73
2022-11-29T09:03:28.771Z,-5.48
2022-11-29T09:05:56.426Z,-5.40
2022-11-29T09:08:24.152Z,-5.86
2022-11-29T09:10:51.510Z,-5.22
2022-11-29T09:13:19.524Z,-4.83
2022-11-29T09:15:46.964Z,-4.73
2022-11-29T09:18:14.279Z,-4.87
2022-11-29T09:20:45.521Z,-4.81
2022-11-29T09:23:13.534Z,-4.74
2022-11-29T09:25:40.849Z,-4.79
2022-11-29T09:28:08.954Z,-4.75
2022-11-29T09:30:38.334Z,-4.83
2022-11-29T09:33:06.086Z,-4.78
2022-11-29T09:35:37.177Z,-4.76
2022-11-29T09:38:04.782Z,-4.75
2022-11-29T09:40:41.683Z,-4.86
2022-11-29T09:43:31.028Z,-4.75
2022-11-29T09:46:22.883Z,-4.57
2022-11-29T09:48:57.825Z,-4.71
2022-11-29T09:51:44.168Z,-4.94
2022-11-29T09:54:42.454Z,-5.09
2022-11-29T09:57:11.314Z,-6.28
2022-11-29T09:59:44.016Z,-5.13
2022-11-29T10:02:24.963Z,-5.29
2022-11-29T10:05:21.062Z,-5.02
2022-11-29T10:07:59.250Z,-5.58
2022-11-29T10:10:37.946Z,-4.98
2022-11-29T10:13:23.843Z,-4.97
2022-11-29T10:15:58.113Z,-5.49
2022-11-29T10:18:36.668Z,-5.38
2022-11-29T10:21:18.223Z,-4.75
2022-11-29T10:23:46.057Z,-4.98
2022-11-29T10:26:13.991Z,-5.21
2022-11-29T10:28:47.910Z,-5.30
2022-11-29T10:31:25.173Z,-5.44
2022-11-29T10:33:54.613Z,-5.58
2022-11-29T10:36:42.914Z,-5.68
2022-11-29T10:39:30.730Z,-5.77
2022-11-29T10:42:02.676Z,-5.81
2022-11-29T10:44:32.456Z,-5.75
2022-11-29T10:47:10.530Z,-5.71
2022-11-29T10:49:40.697Z,-5.80
2022-11-29T10:52:19.689Z,-5.88
2022-11-29T10:54:49.030Z,-6.45
2022-11-29T10:57:19.883Z,-5.67
2022-11-29T11:00:01.143Z,-5.75
2022-11-29T11:02:29.032Z,-5.86
2022-11-29T11:04:57.089Z,-6.04
2022-11-29T11:07:31.177Z,-6.02
2022-11-29T11:09:59.645Z,-5.95
2022-11-29T11:12:33.364Z,-6.05
2022-11-29T11:15:25.250Z,-6.13
2022-11-29T11:17:59.902Z,-6.99
2022-11-29T11:20:30.677Z,-6.10
2022-11-29T11:22:59.608Z,-6.12
2022-11-29T11:25:36.014Z,-6.21
2022-11-29T11:28:22.771Z,-6.54
2022-11-29T11:30:54.373Z,-6.17
2022-11-29T11:33:26.197Z,-6.25
2022-11-29T11:36:06.680Z,-6.27
2022-11-29T11:38:50.617Z,-6.30
2022-11-29T11:41:21.188Z,-6.12
2022-11-29T11:43:56.687Z,-6.26
2022-11-29T11:46:44.686Z,-6.02
2022-11-29T11:49:14.295Z,-6.61
2022-11-29T11:51:44.165Z,-6.25
2022-11-29T11:54:15.700Z,-6.25
2022-11-29T11:56:43.867Z,-6.29
2022-11-29T11:59:25.229Z,-6.34
2022-11-29T12:01:53.017Z,-6.42
2022-11-29T12:04:30.703Z,-6.28
2022-11-29T12:07:03.598Z,-6.29
2022-11-29T12:09:49.351Z,-6.42
2022-11-29T12:12:30.278Z,-6.56
2022-11-29T12:15:09.011Z,-6.61
2022-11-29T12:17:49.775Z,-6.57
2022-11-29T12:20:26.871Z,-6.59
2022-11-29T12:23:12.717Z,-6.62
2022-11-29T12:25:53.551Z,-6.68
2022-11-29T12:28:28.541Z,-6.75
2022-11-29T12:31:23.640Z,-6.91
2022-11-29T12:33:57.184Z,-6.98
2022-11-29T12:36:38.915Z,-7.64
2022-11-29T12:39:18.456Z,-7.21
2022-11-29T12:42:32.936Z,-7.31
2022-11-29T12:45:15.812Z,-7.35
2022-11-29T12:48:01.820Z,-7.37
2022-11-29T12:51:06.522Z,-7.44
2022-11-29T12:53:39.872Z,-7.58
2022-11-29T12:56:18.060Z,-7.55
2022-11-29T12:59:06.999Z,-8.39
2022-11-29T13:01:56.420Z,-7.63
2022-11-29T13:04:26.768Z,-7.62
2022-11-29T13:07:06.794Z,-7.68
2022-11-29T13:09:43.091Z,-7.68
2022-11-29T13:12:18.798Z,-7.66
2022-11-29T13:15:04.053Z,-7.75
2022-11-29T13:17:50.409Z,-7.81
2022-11-29T13:20:22.100Z,-7.83
2022-11-29T13:23:11.928Z,-7.94
2022-11-29T13:25:43.520Z,-7.95
2022-11-29T13:28:25.667Z,-7.90
2022-11-29T13:30:57.313Z,-7.96
2022-11-29T13:33:50.210Z,-7.89
2022-11-29T13:36:41.881Z,-8.32
2022-11-29T13:39:28.364Z,-7.89
2022-11-29T13:42:01.860Z,-7.87
2022-11-29T13:44:46.252Z,-7.89
2022-11-29T13:47:21.665Z,-8.00
2022-11-29T13:50:04.846Z,-7.92
2022-11-29T13:52:39.040Z,-7.93
2022-11-29T13:55:12.870Z,-8.38
2022-11-29T13:58:19.247Z,-8.00
2022-11-29T14:00:46.825Z,-7.97
2022-11-29T14:03:39.863Z,-8.00
2022-11-29T14:06:11.976Z,-8.00
2022-11-29T14:09:16.656Z,-8.04
2022-11-29T14:11:48.839Z,-8.13
2022-11-29T14:14:28.306Z,-8.16
2022-11-29T14:17:03.150Z,-8.23
2022-11-29T14:19:36.371Z,-8.27
2022-11-29T14:22:06.501Z,-8.32
2022-11-29T14:24:37.295Z,-8.35
2022-11-29T14:27:10.359Z,-8.39
2022-11-29T14:29:54.434Z,-8.42
2022-11-29T14:32:32.649Z,-8.42
2022-11-29T14:35:12.710Z,-8.43
2022-11-29T14:37:52.207Z,-8.43
2022-11-29T14:40:40.865Z,-8.49
2022-11-29T14:43:22.417Z,-8.53
2022-11-29T14:46:15.140Z,-8.57
2022-11-29T14:48:57.487Z,-8.61
2022-11-29T14:51:28.183Z,-8.64
2022-11-29T14:54:21.969Z,-8.64
2022-11-29T14:56:49.392Z,-8.64
2022-11-29T14:59:42.749Z,-8.67
2022-11-29T15:02:40.726Z,-9.06
2022-11-29T15:05:20.440Z,-8.67
2022-11-29T15:07:57.734Z,-8.66
2022-11-29T15:10:31.003Z,-8.68
2022-11-29T15:13:01.012Z,-8.65
2022-11-29T15:15:31.564Z,-8.69
2022-11-29T15:18:36.082Z,-8.76
2022-11-29T15:21:18.592Z,-8.76
2022-11-29T15:23:46.212Z,-8.79
2022-11-29T15:26:21.362Z,-8.87
2022-11-29T15:28:49.017Z,-8.88
2022-11-29T15:31:20.485Z,-10.40
2022-11-29T15:33:50.151Z,-10.39
2022-11-29T15:36:22.931Z,-8.95
2022-11-29T15:38:54.090Z,-8.94
2022-11-29T15:41:23.466Z,-8.97
2022-11-29T15:43:58.051Z,-8.98
2022-11-29T15:46:27.804Z,-8.96
2022-11-29T15:48:55.842Z,-9.01
2022-11-29T15:51:37.906Z,-9.06
2022-11-29T15:54:31.307Z,-9.15
2022-11-29T15:57:05.845Z,-9.12
2022-11-29T15:59:48.200Z,-9.14
2022-11-29T16:02:26.334Z,-9.72
2022-11-29T16:04:58.260Z,-9.23
2022-11-29T16:07:32.625Z,-9.19
2022-11-29T16:10:05.182Z,-9.39
2022-11-29T16:12:32.837Z,-9.20
2022-11-29T16:15:01.475Z,-9.51
2022-11-29T16:17:34.295Z,-9.29
2022-11-29T16:20:25.817Z,-9.27
2022-11-29T16:23:08.615Z,-9.30
2022-11-29T16:26:01.413Z,-9.30
2022-11-29T16:28:34.491Z,-9.85
2022-11-29T16:31:05.009Z,-9.28
2022-11-29T16:33:32.727Z,-9.27
2022-11-29T16:36:13.803Z,-9.31
2022-11-29T16:38:54.355Z,-9.47
2022-11-29T16:41:35.272Z,-9.35
2022-11-29T16:44:04.914Z,-9.26
2022-11-29T16:46:40.683Z,-9.30
2022-11-29T16:49:32.642Z,-9.30
2022-11-29T16:52:00.882Z,-9.22
2022-11-29T16:54:34.536Z,-9.18
2022-11-29T16:57:07.195Z,-9.18
2022-11-29T16:59:35.493Z,-9.19
2022-11-29T17:02:03.085Z,-9.17
2022-11-29T17:04:30.556Z,-9.15
2022-11-29T17:06:58.125Z,-9.14
2022-11-29T17:09:28.972Z,-9.18
2022-11-29T17:11:59.937Z,-9.17
2022-11-29T17:14:32.369Z,-9.97
2022-11-29T17:17:02.502Z,-9.19
2022-11-29T17:19:30.660Z,-9.13
2022-11-29T17:21:59.070Z,-9.16
2022-11-29T17:24:26.685Z,-9.13
2022-11-29T17:26:53.939Z,-9.15
2022-11-29T17:29:22.098Z,-9.14
2022-11-29T17:31:53.497Z,-9.11
2022-11-29T17:34:20.936Z,-9.12
2022-11-29T17:36:48.895Z,-10.20
2022-11-29T17:39:20.067Z,-9.21
2022-11-29T17:41:47.777Z,-9.11
2022-11-29T17:44:15.616Z,-9.08
2022-11-29T17:46:42.852Z,-9.09
2022-11-29T17:49:10.994Z,-10.26
2022-11-29T17:54:20.354Z,-9.03
2022-11-29T17:56:48.015Z,-9.12
2022-11-29T17:59:16.404Z,-9.02
2022-11-29T18:01:47.256Z,-9.01
2022-11-29T18:04:15.768Z,-8.99
2022-11-29T18:06:43.768Z,-9.53
2022-11-29T18:09:11.601Z,-9.00
2022-11-29T18:11:47.368Z,-9.01
2022-11-29T18:14:23.026Z,-10.13
2022-11-29T18:16:51.469Z,-9.17
2022-11-29T18:19:22.882Z,-9.00
2022-11-29T18:21:51.053Z,-8.97
2022-11-29T18:24:18.493Z,-8.99
2022-11-29T18:26:46.744Z,-9.04
2022-11-29T18:29:14.464Z,-9.19
2022-11-29T18:31:45.112Z,-9.09
2022-11-29T18:34:14.502Z,-9.14
2022-11-29T18:36:44.740Z,-9.13
2022-11-29T18:39:15.089Z,-9.14
2022-11-29T18:41:44.529Z,-9.15
2022-11-29T18:44:14.079Z,-9.15
2022-11-29T18:46:44.031Z,-9.74
2022-11-29T18:49:16.350Z,-9.20
2022-11-29T18:51:45.649Z,-9.26
2022-11-29T18:54:15.346Z,-9.20
2022-11-29T18:56:43.473Z,-9.22
2022-11-29T18:59:17.737Z,-9.67
2022-11-29T19:01:47.723Z,-9.16
2022-11-29T19:04:18.807Z,-9.17
2022-11-29T19:06:46.378Z,-9.14
2022-11-29T19:09:16.693Z,-9.15
2022-11-29T19:11:44.756Z,-10.06
2022-11-29T19:14:14.228Z,-9.17
2022-11-29T19:16:44.920Z,-9.21
2022-11-29T19:19:14.061Z,-9.33
2022-11-29T19:21:41.758Z,-9.16
2022-11-29T19:24:16.000Z,-9.12
2022-11-29T19:26:46.962Z,-10.01
2022-11-29T19:29:15.465Z,-9.08
2022-11-29T19:31:43.667Z,-9.11
2022-11-29T19:34:11.628Z,-9.23
2022-11-29T19:36:43.904Z,-9.13
2022-11-29T19:39:14.972Z,-9.16
2022-11-29T19:41:47.739Z,-9.16
2022-11-29T19:44:15.468Z,-9.09
2022-11-29T19:46:46.355Z,-9.11
2022-11-29T19:49:13.919Z,-9.10
2022-11-29T19:51:41.614Z,-9.59
2022-11-29T19:54:10.836Z,-9.16
2022-11-29T19:56:39.063Z,-9.15
2022-11-29T19:59:07.732Z,-9.15
2022-11-29T20:01:43.643Z,-9.64
2022-11-29T20:04:12.715Z,-9.37
2022-11-29T20:06:42.023Z,-9.82
2022-11-29T20:09:10.174Z,-9.34
2022-11-29T20:11:37.730Z,-9.28
2022-11-29T20:14:07.912Z,-9.23
2022-11-29T20:16:38.141Z,-9.25
2022-11-29T20:19:14.896Z,-9.21
2022-11-29T20:21:48.033Z,-9.22
2022-11-29T20:24:16.772Z,-9.71
2022-11-29T20:26:47.469Z,-9.96
2022-11-29T20:29:15.611Z,-9.26
2022-11-29T20:31:50.223Z,-9.26
2022-11-29T20:34:19.394Z,-9.27
2022-11-29T20:36:52.868Z,-9.28
2022-11-29T20:39:42.345Z,-9.29
2022-11-29T20:42:32.382Z,-9.28
2022-11-29T20:45:01.795Z,-9.30
2022-11-29T20:47:47.715Z,-9.31
2022-11-29T20:50:27.579Z,-10.00
2022-11-29T20:53:19.436Z,-9.37
2022-11-29T20:55:48.585Z,-9.35
2022-11-29T20:58:17.013Z,-9.79
2022-11-29T21:00:44.793Z,-9.37
2022-11-29T21:03:19.157Z,-9.39
2022-11-29T21:05:47.843Z,-9.37
2022-11-29T21:08:16.991Z,-9.38
2022-11-29T21:10:45.746Z,-9.38
2022-11-29T21:13:14.197Z,-9.39
2022-11-29T21:15:42.184Z,-9.42
2022-11-29T21:18:27.696Z,-9.44
2022-11-29T21:21:04.061Z,-9.48
2022-11-29T21:23:34.419Z,-9.45
2022-11-29T21:26:10.355Z,-9.50
2022-11-29T21:28:47.257Z,-9.48
2022-11-29T21:31:18.085Z,-10.02
2022-11-29T21:33:45.898Z,-9.98
2022-11-29T21:36:13.930Z,-9.63
2022-11-29T21:38:41.744Z,-9.37
2022-11-29T21:41:09.592Z,-10.06
2022-11-29T21:44:04.926Z,-9.33
2022-11-29T21:46:26.516Z,-9.29
2022-11-29T21:48:54.680Z,-9.84
2022-11-29T21:51:22.088Z,-9.24
2022-11-29T21:53:49.492Z,-9.35
2022-11-29T21:56:17.406Z,-9.23
2022-11-29T21:58:44.904Z,-9.31
2022-11-29T22:01:18.200Z,-10.46
2022-11-29T22:03:46.234Z,-9.33
2022-11-29T22:06:18.678Z,-9.34
2022-11-29T22:08:47.827Z,-9.88
2022-11-29T22:11:30.900Z,-9.37
2022-11-29T22:14:15.415Z,-9.38
2022-11-29T22:16:48.265Z,-9.40
2022-11-29T22:19:21.267Z,-9.37
2022-11-29T22:21:51.605Z,-10.01
2022-11-29T22:24:21.625Z,-9.40
2022-11-29T22:26:52.557Z,-9.45
2022-11-29T22:29:20.139Z,-9.47
2022-11-29T22:31:49.477Z,-9.47
2022-11-29T22:34:17.572Z,-10.08
2022-11-29T22:36:45.767Z,-9.46
2022-11-29T22:39:13.443Z,-9.46
2022-11-29T22:41:41.565Z,-9.48
2022-11-29T22:44:09.142Z,-9.52
2022-11-29T22:46:41.375Z,-9.61
2022-11-29T22:49:30.401Z,-9.70
2022-11-29T22:51:57.813Z,-10.75
2022-11-29T22:54:25.568Z,-9.59
2022-11-29T22:56:53.266Z,-9.60
2022-11-29T22:59:20.545Z,-9.58
2022-11-29T23:01:48.231Z,-9.60
2022-11-29T23:04:16.311Z,-9.66
2022-11-29T23:06:45.757Z,-10.33
2022-11-29T23:09:16.720Z,-9.66
2022-11-29T23:11:46.244Z,-9.62
2022-11-29T23:14:13.914Z,-9.67
2022-11-29T23:16:41.602Z,-9.67
2022-11-29T23:19:09.449Z,-10.74
2022-11-29T23:21:40.111Z,-9.66
2022-11-29T23:24:07.547Z,-9.66
2022-11-29T23:26:40.257Z,-9.68
2022-11-29T23:29:10.904Z,-9.69
2022-11-29T23:31:38.893Z,-9.71
2022-11-29T23:34:06.927Z,-9.63
2022-11-29T23:36:35.015Z,-9.63
2022-11-29T23:39:06.816Z,-9.65
2022-11-29T23:41:36.176Z,-9.68
2022-11-29T23:44:07.236Z,-9.70
2022-11-29T23:46:35.145Z,-9.65
2022-11-29T23:49:02.790Z,-9.65
2022-11-29T23:51:30.757Z,-9.63
2022-11-29T23:53:58.027Z,-9.61
2022-11-29T23:56:25.804Z,-9.57
2022-11-29T23:58:53.425Z,-9.96
